Quinebaug, Connecticut
Current Conditions -  °F | °C
As of 3:54 PM on Saturday 25 Oct 2014 (Local Time) from KORH Reporting Station
Clear Clear  
Wind Chill: 58°   Ceiling: Unl
Heat Index: 58°   Visibility: 10mi
Dew Point: 41°   Wind: 10mph
Humidity: 53%   Direction: 250°WSW
Pressure: 29.62"   Gusts: NA
Location:  42.01°N, 71.94°W
Report Text: KORH 251954Z 25009KT 10SM CLR 14/05 A2962 RMK AO2 SLP033 T01440050
Loading
Personal Weather Stations






























Interactive Weather Map
Tropical Storm Tracking
New forecast layout! Learn more

10-Day Weather Forecast

Advertisements
Track Severe Weather on mobile